Malta, Brazil
Current Conditions -  °F | °C
As of 5:00 PM on Friday 19 Dec 2014 (Local Time) from SBKG Reporting Station
Scattered Clouds Scattered Clouds  
Wind Chill: 79°   Ceiling: Unl
Heat Index: 81°   Visibility: 6mi
Dew Point: 66°   Wind: 20mph
Humidity: 65%   Direction: 80°E
Pressure: 29.91"   Gusts: NA
Location:  6.9°S, 37.52°W
Report Text: SBKG 192000Z 08017KT 9999 SCT020 26/19 Q1013
Loading
Personal Weather Stations






























Interactive Weather Map New forecast layout! Learn more

10-Day Weather Forecast

Advertisements
Track Severe Weather on mobile